sensor_id;sensor_type;location;lat;lon;timestamp;P1;durP1;ratioP1;P2;durP2;ratioP2
14516;SDS011;7344;50.864;4.362;2023-11-19T00:02:08;7.40;;;4.07;;
14516;SDS011;7344;50.864;4.362;2023-11-19T00:04:36;4.70;;;4.30;;
14516;SDS011;7344;50.864;4.362;2023-11-19T00:07:04;6.40;;;4.27;;
14516;SDS011;7344;50.864;4.362;2023-11-19T00:09:31;7.27;;;4.20;;
14516;SDS011;7344;50.864;4.362;2023-11-19T00:11:57;4.40;;;3.77;;
14516;SDS011;7344;50.864;4.362;2023-11-19T00:14:25;7.40;;;4.23;;
14516;SDS011;7344;50.864;4.362;2023-11-19T00:16:51;6.60;;;3.83;;
14516;SDS011;7344;50.864;4.362;2023-11-19T00:19:18;8.07;;;4.13;;
14516;SDS011;7344;50.864;4.362;2023-11-19T00:21:44;7.00;;;4.13;;
14516;SDS011;7344;50.864;4.362;2023-11-19T00:24:10;7.20;;;3.80;;
14516;SDS011;7344;50.864;4.362;2023-11-19T00:26:37;7.27;;;4.23;;
14516;SDS011;7344;50.864;4.362;2023-11-19T00:29:03;7.43;;;4.33;;
14516;SDS011;7344;50.864;4.362;2023-11-19T00:31:29;6.30;;;3.90;;
14516;SDS011;7344;50.864;4.362;2023-11-19T00:33:55;7.97;;;3.70;;
14516;SDS011;7344;50.864;4.362;2023-11-19T00:36:20;7.70;;;3.53;;
14516;SDS011;7344;50.864;4.362;2023-11-19T00:38:48;8.23;;;4.00;;
14516;SDS011;7344;50.864;4.362;2023-11-19T00:41:14;10.83;;;3.67;;
14516;SDS011;7344;50.864;4.362;2023-11-19T00:43:41;7.00;;;3.40;;
14516;SDS011;7344;50.864;4.362;2023-11-19T00:46:07;8.23;;;4.20;;
14516;SDS011;7344;50.864;4.362;2023-11-19T00:48:33;9.10;;;3.43;;
14516;SDS011;7344;50.864;4.362;2023-11-19T00:50:59;9.53;;;3.23;;
14516;SDS011;7344;50.864;4.362;2023-11-19T00:53:24;9.93;;;3.47;;
14516;SDS011;7344;50.864;4.362;2023-11-19T00:55:50;9.77;;;3.90;;
14516;SDS011;7344;50.864;4.362;2023-11-19T00:58:15;9.10;;;3.60;;
14516;SDS011;7344;50.864;4.362;2023-11-19T01:00:43;8.97;;;3.83;;
14516;SDS011;7344;50.864;4.362;2023-11-19T01:03:09;10.90;;;3.73;;
14516;SDS011;7344;50.864;4.362;2023-11-19T01:05:36;16.37;;;3.97;;
14516;SDS011;7344;50.864;4.362;2023-11-19T01:08:02;14.20;;;3.50;;
14516;SDS011;7344;50.864;4.362;2023-11-19T01:10:29;11.07;;;3.40;;
14516;SDS011;7344;50.864;4.362;2023-11-19T01:12:55;11.93;;;3.40;;
14516;SDS011;7344;50.864;4.362;2023-11-19T01:15:21;8.70;;;3.27;;
14516;SDS011;7344;50.864;4.362;2023-11-19T01:17:47;12.20;;;3.40;;
14516;SDS011;7344;50.864;4.362;2023-11-19T01:20:13;11.30;;;3.40;;
14516;SDS011;7344;50.864;4.362;2023-11-19T01:22:39;11.00;;;3.67;;
14516;SDS011;7344;50.864;4.362;2023-11-19T01:25:05;10.27;;;3.80;;
14516;SDS011;7344;50.864;4.362;2023-11-19T01:27:31;13.67;;;4.00;;
14516;SDS011;7344;50.864;4.362;2023-11-19T01:29:59;11.43;;;3.90;;
14516;SDS011;7344;50.864;4.362;2023-11-19T01:32:27;13.83;;;4.10;;
14516;SDS011;7344;50.864;4.362;2023-11-19T01:34:52;9.30;;;3.83;;
14516;SDS011;7344;50.864;4.362;2023-11-19T01:37:18;12.47;;;3.43;;
14516;SDS011;7344;50.864;4.362;2023-11-19T01:39:44;14.50;;;3.87;;
14516;SDS011;7344;50.864;4.362;2023-11-19T01:42:10;14.27;;;4.17;;
14516;SDS011;7344;50.864;4.362;2023-11-19T01:44:37;19.00;;;3.63;;
14516;SDS011;7344;50.864;4.362;2023-11-19T01:47:03;16.87;;;3.90;;
14516;SDS011;7344;50.864;4.362;2023-11-19T01:49:29;14.90;;;4.30;;
14516;SDS011;7344;50.864;4.362;2023-11-19T01:51:57;13.83;;;3.83;;
14516;SDS011;7344;50.864;4.362;2023-11-19T01:54:24;12.60;;;4.10;;
14516;SDS011;7344;50.864;4.362;2023-11-19T01:56:50;17.53;;;3.90;;
14516;SDS011;7344;50.864;4.362;2023-11-19T01:59:17;16.93;;;4.03;;
14516;SDS011;7344;50.864;4.362;2023-11-19T02:01:45;11.20;;;3.40;;
14516;SDS011;7344;50.864;4.362;2023-11-19T02:04:11;15.80;;;4.30;;
14516;SDS011;7344;50.864;4.362;2023-11-19T02:06:37;19.80;;;4.00;;
14516;SDS011;7344;50.864;4.362;2023-11-19T02:09:08;16.67;;;4.03;;
14516;SDS011;7344;50.864;4.362;2023-11-19T02:11:34;15.47;;;3.67;;
14516;SDS011;7344;50.864;4.362;2023-11-19T02:14:00;16.53;;;4.07;;
14516;SDS011;7344;50.864;4.362;2023-11-19T02:16:26;12.13;;;4.00;;
14516;SDS011;7344;50.864;4.362;2023-11-19T02:18:53;17.93;;;4.30;;
14516;SDS011;7344;50.864;4.362;2023-11-19T02:21:18;13.90;;;3.77;;
14516;SDS011;7344;50.864;4.362;2023-11-19T02:23:44;16.30;;;3.93;;
14516;SDS011;7344;50.864;4.362;2023-11-19T02:28:58;18.03;;;4.00;;
14516;SDS011;7344;50.864;4.362;2023-11-19T02:31:24;15.97;;;4.10;;
14516;SDS011;7344;50.864;4.362;2023-11-19T02:33:49;18.73;;;4.30;;
14516;SDS011;7344;50.864;4.362;2023-11-19T02:36:15;15.07;;;4.20;;
14516;SDS011;7344;50.864;4.362;2023-11-19T02:38:41;17.93;;;4.10;;
14516;SDS011;7344;50.864;4.362;2023-11-19T02:41:07;15.10;;;3.77;;
14516;SDS011;7344;50.864;4.362;2023-11-19T02:43:34;23.30;;;4.00;;
14516;SDS011;7344;50.864;4.362;2023-11-19T02:46:02;18.07;;;4.40;;
14516;SDS011;7344;50.864;4.362;2023-11-19T02:48:34;18.40;;;4.53;;
14516;SDS011;7344;50.864;4.362;2023-11-19T02:51:00;13.30;;;3.57;;
14516;SDS011;7344;50.864;4.362;2023-11-19T02:53:28;18.80;;;3.93;;
14516;SDS011;7344;50.864;4.362;2023-11-19T02:55:56;16.17;;;3.73;;
14516;SDS011;7344;50.864;4.362;2023-11-19T02:58:36;15.13;;;4.20;;
14516;SDS011;7344;50.864;4.362;2023-11-19T03:01:03;13.67;;;3.70;;
14516;SDS011;7344;50.864;4.362;2023-11-19T03:03:37;16.47;;;4.40;;
14516;SDS011;7344;50.864;4.362;2023-11-19T03:06:05;16.80;;;4.57;;
14516;SDS011;7344;50.864;4.362;2023-11-19T03:08:31;17.90;;;4.33;;
14516;SDS011;7344;50.864;4.362;2023-11-19T03:10:58;15.07;;;3.60;;
14516;SDS011;7344;50.864;4.362;2023-11-19T03:13:24;15.27;;;3.93;;
14516;SDS011;7344;50.864;4.362;2023-11-19T03:15:49;18.90;;;4.30;;
14516;SDS011;7344;50.864;4.362;2023-11-19T03:18:16;18.17;;;4.03;;
14516;SDS011;7344;50.864;4.362;2023-11-19T03:20:42;13.53;;;3.83;;
14516;SDS011;7344;50.864;4.362;2023-11-19T03:23:08;20.33;;;4.03;;
14516;SDS011;7344;50.864;4.362;2023-11-19T03:25:33;18.27;;;4.27;;
14516;SDS011;7344;50.864;4.362;2023-11-19T03:27:59;16.77;;;4.67;;
14516;SDS011;7344;50.864;4.362;2023-11-19T03:30:27;21.20;;;4.20;;
14516;SDS011;7344;50.864;4.362;2023-11-19T03:32:53;17.50;;;4.43;;
14516;SDS011;7344;50.864;4.362;2023-11-19T03:35:22;16.80;;;4.37;;
14516;SDS011;7344;50.864;4.362;2023-11-19T03:37:49;22.87;;;4.37;;
14516;SDS011;7344;50.864;4.362;2023-11-19T03:40:15;16.97;;;4.10;;
14516;SDS011;7344;50.864;4.362;2023-11-19T03:42:41;17.90;;;4.10;;
14516;SDS011;7344;50.864;4.362;2023-11-19T03:45:07;20.70;;;3.90;;
14516;SDS011;7344;50.864;4.362;2023-11-19T03:47:35;15.67;;;4.00;;
14516;SDS011;7344;50.864;4.362;2023-11-19T03:50:02;17.03;;;4.17;;
14516;SDS011;7344;50.864;4.362;2023-11-19T03:52:28;16.87;;;4.30;;
14516;SDS011;7344;50.864;4.362;2023-11-19T03:54:54;16.17;;;4.23;;
14516;SDS011;7344;50.864;4.362;2023-11-19T03:57:21;21.93;;;4.20;;
14516;SDS011;7344;50.864;4.362;2023-11-19T03:59:47;16.27;;;4.30;;
14516;SDS011;7344;50.864;4.362;2023-11-19T04:02:13;19.53;;;4.80;;
14516;SDS011;7344;50.864;4.362;2023-11-19T04:04:39;22.10;;;4.73;;
14516;SDS011;7344;50.864;4.362;2023-11-19T04:07:04;18.70;;;4.20;;
14516;SDS011;7344;50.864;4.362;2023-11-19T04:09:30;18.90;;;4.03;;
14516;SDS011;7344;50.864;4.362;2023-11-19T04:12:00;17.97;;;4.20;;
14516;SDS011;7344;50.864;4.362;2023-11-19T04:14:26;17.70;;;4.90;;
14516;SDS011;7344;50.864;4.362;2023-11-19T04:16:52;20.40;;;4.83;;
14516;SDS011;7344;50.864;4.362;2023-11-19T04:19:18;23.57;;;4.70;;
14516;SDS011;7344;50.864;4.362;2023-11-19T04:21:44;28.43;;;4.70;;
14516;SDS011;7344;50.864;4.362;2023-11-19T04:24:10;24.43;;;4.57;;
14516;SDS011;7344;50.864;4.362;2023-11-19T04:26:42;17.50;;;4.20;;
14516;SDS011;7344;50.864;4.362;2023-11-19T04:29:11;20.73;;;4.37;;
14516;SDS011;7344;50.864;4.362;2023-11-19T04:31:38;24.80;;;4.87;;
14516;SDS011;7344;50.864;4.362;2023-11-19T04:34:04;21.27;;;5.23;;
14516;SDS011;7344;50.864;4.362;2023-11-19T04:36:31;21.33;;;3.90;;
14516;SDS011;7344;50.864;4.362;2023-11-19T04:38:58;24.30;;;4.77;;
14516;SDS011;7344;50.864;4.362;2023-11-19T04:41:24;26.17;;;5.27;;
14516;SDS011;7344;50.864;4.362;2023-11-19T04:43:52;22.93;;;4.80;;
14516;SDS011;7344;50.864;4.362;2023-11-19T04:46:21;22.63;;;4.67;;
14516;SDS011;7344;50.864;4.362;2023-11-19T04:48:47;23.53;;;5.00;;
14516;SDS011;7344;50.864;4.362;2023-11-19T04:51:12;23.73;;;5.53;;
14516;SDS011;7344;50.864;4.362;2023-11-19T04:53:38;23.63;;;5.00;;
14516;SDS011;7344;50.864;4.362;2023-11-19T04:56:10;23.33;;;5.30;;
14516;SDS011;7344;50.864;4.362;2023-11-19T04:58:37;20.10;;;4.70;;
14516;SDS011;7344;50.864;4.362;2023-11-19T05:01:03;23.53;;;5.20;;
14516;SDS011;7344;50.864;4.362;2023-11-19T05:03:30;23.13;;;5.20;;
14516;SDS011;7344;50.864;4.362;2023-11-19T05:05:56;25.50;;;5.20;;
14516;SDS011;7344;50.864;4.362;2023-11-19T05:08:22;21.63;;;5.63;;
14516;SDS011;7344;50.864;4.362;2023-11-19T05:10:48;24.90;;;5.53;;
14516;SDS011;7344;50.864;4.362;2023-11-19T05:13:14;27.07;;;5.40;;
14516;SDS011;7344;50.864;4.362;2023-11-19T05:15:40;26.70;;;5.40;;
14516;SDS011;7344;50.864;4.362;2023-11-19T05:18:05;21.63;;;4.80;;
14516;SDS011;7344;50.864;4.362;2023-11-19T05:20:31;25.23;;;5.20;;
14516;SDS011;7344;50.864;4.362;2023-11-19T05:22:57;28.83;;;5.50;;
14516;SDS011;7344;50.864;4.362;2023-11-19T05:25:25;30.37;;;5.63;;
14516;SDS011;7344;50.864;4.362;2023-11-19T05:27:51;29.00;;;5.33;;
14516;SDS011;7344;50.864;4.362;2023-11-19T05:30:17;25.47;;;5.10;;
14516;SDS011;7344;50.864;4.362;2023-11-19T05:32:43;26.03;;;5.03;;
14516;SDS011;7344;50.864;4.362;2023-11-19T05:35:09;24.63;;;4.83;;
14516;SDS011;7344;50.864;4.362;2023-11-19T05:37:34;33.50;;;5.77;;
14516;SDS011;7344;50.864;4.362;2023-11-19T05:40:00;23.27;;;5.53;;
14516;SDS011;7344;50.864;4.362;2023-11-19T05:42:28;25.60;;;5.20;;
14516;SDS011;7344;50.864;4.362;2023-11-19T05:44:54;25.27;;;4.87;;
14516;SDS011;7344;50.864;4.362;2023-11-19T05:47:20;25.10;;;5.13;;
14516;SDS011;7344;50.864;4.362;2023-11-19T05:49:45;27.27;;;5.17;;
14516;SDS011;7344;50.864;4.362;2023-11-19T05:52:11;27.73;;;5.00;;
14516;SDS011;7344;50.864;4.362;2023-11-19T05:54:37;28.23;;;5.87;;
14516;SDS011;7344;50.864;4.362;2023-11-19T05:57:06;22.63;;;5.00;;
14516;SDS011;7344;50.864;4.362;2023-11-19T05:59:35;26.90;;;5.90;;
14516;SDS011;7344;50.864;4.362;2023-11-19T06:02:01;26.90;;;5.73;;
14516;SDS011;7344;50.864;4.362;2023-11-19T06:04:27;27.87;;;5.57;;
14516;SDS011;7344;50.864;4.362;2023-11-19T06:06:53;33.80;;;6.40;;
14516;SDS011;7344;50.864;4.362;2023-11-19T06:09:20;29.07;;;6.20;;
14516;SDS011;7344;50.864;4.362;2023-11-19T06:11:48;26.43;;;5.60;;
14516;SDS011;7344;50.864;4.362;2023-11-19T06:14:14;25.93;;;5.60;;
14516;SDS011;7344;50.864;4.362;2023-11-19T06:16:39;26.73;;;5.40;;
14516;SDS011;7344;50.864;4.362;2023-11-19T06:19:05;26.47;;;5.13;;
14516;SDS011;7344;50.864;4.362;2023-11-19T06:21:31;25.80;;;5.27;;
14516;SDS011;7344;50.864;4.362;2023-11-19T06:23:56;27.27;;;5.83;;
14516;SDS011;7344;50.864;4.362;2023-11-19T06:26:23;23.20;;;5.03;;
14516;SDS011;7344;50.864;4.362;2023-11-19T06:28:49;35.00;;;6.03;;
14516;SDS011;7344;50.864;4.362;2023-11-19T06:31:16;33.53;;;6.13;;
14516;SDS011;7344;50.864;4.362;2023-11-19T06:33:41;35.30;;;6.37;;
14516;SDS011;7344;50.864;4.362;2023-11-19T06:36:08;27.67;;;6.13;;
14516;SDS011;7344;50.864;4.362;2023-11-19T06:38:34;23.40;;;5.97;;
14516;SDS011;7344;50.864;4.362;2023-11-19T06:41:00;24.23;;;5.23;;
14516;SDS011;7344;50.864;4.362;2023-11-19T06:43:26;28.17;;;5.93;;
14516;SDS011;7344;50.864;4.362;2023-11-19T06:45:53;24.40;;;5.33;;
14516;SDS011;7344;50.864;4.362;2023-11-19T06:48:19;23.93;;;5.03;;
14516;SDS011;7344;50.864;4.362;2023-11-19T06:50:44;28.93;;;5.40;;
14516;SDS011;7344;50.864;4.362;2023-11-19T06:53:10;31.90;;;5.63;;
14516;SDS011;7344;50.864;4.362;2023-11-19T06:55:36;21.90;;;5.33;;
14516;SDS011;7344;50.864;4.362;2023-11-19T06:58:01;32.53;;;5.80;;
14516;SDS011;7344;50.864;4.362;2023-11-19T07:00:28;25.60;;;5.67;;
14516;SDS011;7344;50.864;4.362;2023-11-19T07:02:54;27.33;;;4.83;;
14516;SDS011;7344;50.864;4.362;2023-11-19T07:05:20;27.17;;;5.43;;
14516;SDS011;7344;50.864;4.362;2023-11-19T07:07:46;26.57;;;5.20;;
14516;SDS011;7344;50.864;4.362;2023-11-19T07:10:11;29.93;;;6.10;;
14516;SDS011;7344;50.864;4.362;2023-11-19T07:12:37;30.53;;;6.10;;
14516;SDS011;7344;50.864;4.362;2023-11-19T07:15:03;30.20;;;6.07;;
14516;SDS011;7344;50.864;4.362;2023-11-19T07:17:30;27.47;;;5.97;;
14516;SDS011;7344;50.864;4.362;2023-11-19T07:19:56;27.73;;;5.63;;
14516;SDS011;7344;50.864;4.362;2023-11-19T07:22:25;25.07;;;5.87;;
14516;SDS011;7344;50.864;4.362;2023-11-19T07:24:50;28.90;;;5.60;;
14516;SDS011;7344;50.864;4.362;2023-11-19T07:27:19;27.30;;;6.73;;
14516;SDS011;7344;50.864;4.362;2023-11-19T07:29:44;27.80;;;6.07;;
14516;SDS011;7344;50.864;4.362;2023-11-19T07:32:11;25.53;;;5.23;;
14516;SDS011;7344;50.864;4.362;2023-11-19T07:34:38;29.13;;;5.50;;
14516;SDS011;7344;50.864;4.362;2023-11-19T07:37:04;32.93;;;5.63;;
14516;SDS011;7344;50.864;4.362;2023-11-19T07:39:30;26.07;;;5.90;;
14516;SDS011;7344;50.864;4.362;2023-11-19T07:41:56;28.67;;;6.10;;
14516;SDS011;7344;50.864;4.362;2023-11-19T07:44:22;24.27;;;5.50;;
14516;SDS011;7344;50.864;4.362;2023-11-19T07:46:47;26.20;;;6.13;;
14516;SDS011;7344;50.864;4.362;2023-11-19T07:49:13;27.07;;;5.63;;
14516;SDS011;7344;50.864;4.362;2023-11-19T07:51:39;22.33;;;5.27;;
14516;SDS011;7344;50.864;4.362;2023-11-19T07:54:05;19.00;;;4.70;;
14516;SDS011;7344;50.864;4.362;2023-11-19T07:56:31;24.37;;;5.07;;
14516;SDS011;7344;50.864;4.362;2023-11-19T07:58:59;27.03;;;5.77;;
14516;SDS011;7344;50.864;4.362;2023-11-19T08:01:25;23.73;;;5.80;;
14516;SDS011;7344;50.864;4.362;2023-11-19T08:03:50;25.83;;;5.40;;
14516;SDS011;7344;50.864;4.362;2023-11-19T08:06:16;26.63;;;5.23;;
14516;SDS011;7344;50.864;4.362;2023-11-19T08:08:41;26.40;;;5.93;;
14516;SDS011;7344;50.864;4.362;2023-11-19T08:11:08;22.43;;;4.43;;
14516;SDS011;7344;50.864;4.362;2023-11-19T08:13:33;20.80;;;5.07;;
14516;SDS011;7344;50.864;4.362;2023-11-19T08:15:59;27.20;;;5.00;;
14516;SDS011;7344;50.864;4.362;2023-11-19T08:18:24;18.60;;;5.20;;
14516;SDS011;7344;50.864;4.362;2023-11-19T08:20:50;15.37;;;4.70;;
14516;SDS011;7344;50.864;4.362;2023-11-19T08:23:18;27.57;;;5.57;;
14516;SDS011;7344;50.864;4.362;2023-11-19T08:25:44;23.87;;;5.33;;
14516;SDS011;7344;50.864;4.362;2023-11-19T08:28:10;18.77;;;4.47;;
14516;SDS011;7344;50.864;4.362;2023-11-19T08:30:36;18.93;;;4.93;;
14516;SDS011;7344;50.864;4.362;2023-11-19T08:33:01;16.92;;;4.40;;
14516;SDS011;7344;50.864;4.362;2023-11-19T08:35:31;25.27;;;5.30;;
14516;SDS011;7344;50.864;4.362;2023-11-19T08:37:56;20.90;;;4.97;;
14516;SDS011;7344;50.864;4.362;2023-11-19T08:40:23;20.17;;;5.03;;
14516;SDS011;7344;50.864;4.362;2023-11-19T08:42:50;20.37;;;5.10;;
14516;SDS011;7344;50.864;4.362;2023-11-19T08:45:16;23.53;;;5.27;;
14516;SDS011;7344;50.864;4.362;2023-11-19T08:47:42;19.97;;;5.20;;
14516;SDS011;7344;50.864;4.362;2023-11-19T08:50:07;19.73;;;4.97;;
14516;SDS011;7344;50.864;4.362;2023-11-19T08:52:33;26.27;;;5.27;;
14516;SDS011;7344;50.864;4.362;2023-11-19T08:54:59;21.70;;;4.83;;
14516;SDS011;7344;50.864;4.362;2023-11-19T08:57:25;26.23;;;5.33;;
14516;SDS011;7344;50.864;4.362;2023-11-19T08:59:50;22.37;;;5.80;;
14516;SDS011;7344;50.864;4.362;2023-11-19T09:02:16;23.57;;;4.50;;
14516;SDS011;7344;50.864;4.362;2023-11-19T09:04:43;23.13;;;5.37;;
14516;SDS011;7344;50.864;4.362;2023-11-19T09:07:09;23.27;;;5.60;;
14516;SDS011;7344;50.864;4.362;2023-11-19T09:09:34;20.20;;;5.20;;
14516;SDS011;7344;50.864;4.362;2023-11-19T09:12:01;28.27;;;5.87;;
14516;SDS011;7344;50.864;4.362;2023-11-19T09:14:28;25.93;;;4.57;;
14516;SDS011;7344;50.864;4.362;2023-11-19T09:16:55;21.33;;;4.40;;
14516;SDS011;7344;50.864;4.362;2023-11-19T09:19:21;20.17;;;4.33;;
14516;SDS011;7344;50.864;4.362;2023-11-19T09:21:46;23.23;;;5.03;;
14516;SDS011;7344;50.864;4.362;2023-11-19T09:24:13;19.27;;;4.07;;
14516;SDS011;7344;50.864;4.362;2023-11-19T09:26:38;19.37;;;4.70;;
14516;SDS011;7344;50.864;4.362;2023-11-19T09:29:06;20.30;;;4.60;;
14516;SDS011;7344;50.864;4.362;2023-11-19T09:31:33;15.43;;;4.30;;
14516;SDS011;7344;50.864;4.362;2023-11-19T09:33:59;18.47;;;4.37;;
14516;SDS011;7344;50.864;4.362;2023-11-19T09:36:24;17.50;;;4.17;;
14516;SDS011;7344;50.864;4.362;2023-11-19T09:38:50;16.00;;;3.97;;
14516;SDS011;7344;50.864;4.362;2023-11-19T09:41:15;16.48;;;4.47;;
14516;SDS011;7344;50.864;4.362;2023-11-19T09:43:42;20.88;;;4.97;;
14516;SDS011;7344;50.864;4.362;2023-11-19T09:46:10;13.30;;;4.43;;
14516;SDS011;7344;50.864;4.362;2023-11-19T09:48:39;11.55;;;4.22;;
14516;SDS011;7344;50.864;4.362;2023-11-19T09:51:09;11.73;;;3.78;;
14516;SDS011;7344;50.864;4.362;2023-11-19T09:53:36;14.23;;;4.10;;
14516;SDS011;7344;50.864;4.362;2023-11-19T09:56:05;16.45;;;4.57;;
14516;SDS011;7344;50.864;4.362;2023-11-19T09:58:32;12.38;;;3.92;;
14516;SDS011;7344;50.864;4.362;2023-11-19T10:00:59;15.13;;;4.07;;
14516;SDS011;7344;50.864;4.362;2023-11-19T10:03:35;16.98;;;3.90;;
14516;SDS011;7344;50.864;4.362;2023-11-19T10:06:03;18.70;;;4.45;;
14516;SDS011;7344;50.864;4.362;2023-11-19T10:08:31;14.18;;;4.40;;
14516;SDS011;7344;50.864;4.362;2023-11-19T10:10:57;16.33;;;4.45;;
14516;SDS011;7344;50.864;4.362;2023-11-19T10:13:27;15.05;;;4.85;;
14516;SDS011;7344;50.864;4.362;2023-11-19T10:15:53;14.80;;;4.35;;
14516;SDS011;7344;50.864;4.362;2023-11-19T10:18:27;19.55;;;4.68;;
14516;SDS011;7344;50.864;4.362;2023-11-19T10:20:52;15.40;;;4.40;;
14516;SDS011;7344;50.864;4.362;2023-11-19T10:23:20;16.58;;;4.32;;
14516;SDS011;7344;50.864;4.362;2023-11-19T10:25:46;15.55;;;4.72;;
14516;SDS011;7344;50.864;4.362;2023-11-19T10:28:14;13.93;;;4.18;;
14516;SDS011;7344;50.864;4.362;2023-11-19T10:30:41;16.67;;;4.72;;
14516;SDS011;7344;50.864;4.362;2023-11-19T10:33:07;18.40;;;4.63;;
14516;SDS011;7344;50.864;4.362;2023-11-19T10:35:35;22.88;;;4.97;;
14516;SDS011;7344;50.864;4.362;2023-11-19T10:38:14;15.32;;;4.72;;
14516;SDS011;7344;50.864;4.362;2023-11-19T10:40:40;17.30;;;4.80;;
14516;SDS011;7344;50.864;4.362;2023-11-19T10:43:07;16.23;;;4.72;;
14516;SDS011;7344;50.864;4.362;2023-11-19T10:45:33;17.27;;;4.47;;
14516;SDS011;7344;50.864;4.362;2023-11-19T10:47:59;18.10;;;5.10;;
14516;SDS011;7344;50.864;4.362;2023-11-19T10:50:26;15.60;;;4.57;;
14516;SDS011;7344;50.864;4.362;2023-11-19T10:52:56;20.00;;;4.47;;
14516;SDS011;7344;50.864;4.362;2023-11-19T10:55:28;12.87;;;3.53;;
14516;SDS011;7344;50.864;4.362;2023-11-19T10:58:02;12.93;;;3.90;;
14516;SDS011;7344;50.864;4.362;2023-11-19T11:00:30;14.63;;;4.55;;
14516;SDS011;7344;50.864;4.362;2023-11-19T11:03:21;14.82;;;4.10;;
14516;SDS011;7344;50.864;4.362;2023-11-19T11:05:54;15.23;;;3.78;;
14516;SDS011;7344;50.864;4.362;2023-11-19T11:08:21;15.98;;;4.18;;
14516;SDS011;7344;50.864;4.362;2023-11-19T11:10:53;16.48;;;4.28;;
14516;SDS011;7344;50.864;4.362;2023-11-19T11:13:22;14.80;;;3.97;;
14516;SDS011;7344;50.864;4.362;2023-11-19T11:15:57;19.27;;;4.63;;
14516;SDS011;7344;50.864;4.362;2023-11-19T11:18:23;13.93;;;4.75;;
14516;SDS011;7344;50.864;4.362;2023-11-19T11:30:05;16.53;;;4.23;;
14516;SDS011;7344;50.864;4.362;2023-11-19T11:34:59;21.53;;;4.73;;
14516;SDS011;7344;50.864;4.362;2023-11-19T11:37:49;19.53;;;4.53;;
14516;SDS011;7344;50.864;4.362;2023-11-19T11:40:21;15.80;;;4.70;;
14516;SDS011;7344;50.864;4.362;2023-11-19T11:42:48;13.30;;;4.20;;
14516;SDS011;7344;50.864;4.362;2023-11-19T11:45:16;22.87;;;5.30;;
14516;SDS011;7344;50.864;4.362;2023-11-19T11:50:09;17.05;;;4.68;;
14516;SDS011;7344;50.864;4.362;2023-11-19T11:55:26;17.52;;;5.10;;
14516;SDS011;7344;50.864;4.362;2023-11-19T11:58:02;17.15;;;4.63;;
14516;SDS011;7344;50.864;4.362;2023-11-19T12:02:55;15.80;;;4.28;;
14516;SDS011;7344;50.864;4.362;2023-11-19T12:05:25;13.15;;;4.43;;
14516;SDS011;7344;50.864;4.362;2023-11-19T12:08:01;17.58;;;4.97;;
14516;SDS011;7344;50.864;4.362;2023-11-19T12:10:29;18.23;;;4.55;;
14516;SDS011;7344;50.864;4.362;2023-11-19T12:13:04;15.65;;;4.20;;
14516;SDS011;7344;50.864;4.362;2023-11-19T12:15:32;18.57;;;4.50;;
14516;SDS011;7344;50.864;4.362;2023-11-19T12:17:57;22.03;;;4.70;;
14516;SDS011;7344;50.864;4.362;2023-11-19T12:20:24;14.23;;;3.67;;
14516;SDS011;7344;50.864;4.362;2023-11-19T12:22:51;15.13;;;3.97;;
14516;SDS011;7344;50.864;4.362;2023-11-19T12:25:17;18.03;;;4.07;;
14516;SDS011;7344;50.864;4.362;2023-11-19T12:27:46;13.63;;;4.20;;
14516;SDS011;7344;50.864;4.362;2023-11-19T12:30:22;12.10;;;3.77;;
14516;SDS011;7344;50.864;4.362;2023-11-19T12:32:52;14.77;;;3.80;;
14516;SDS011;7344;50.864;4.362;2023-11-19T12:35:21;16.40;;;4.27;;
14516;SDS011;7344;50.864;4.362;2023-11-19T12:37:49;20.40;;;4.57;;
14516;SDS011;7344;50.864;4.362;2023-11-19T12:40:24;18.17;;;4.10;;
14516;SDS011;7344;50.864;4.362;2023-11-19T12:42:54;16.43;;;4.57;;
14516;SDS011;7344;50.864;4.362;2023-11-19T12:45:20;17.03;;;4.57;;
14516;SDS011;7344;50.864;4.362;2023-11-19T12:47:46;17.13;;;4.40;;
14516;SDS011;7344;50.864;4.362;2023-11-19T12:50:14;20.60;;;4.43;;
14516;SDS011;7344;50.864;4.362;2023-11-19T12:52:40;18.43;;;4.73;;
14516;SDS011;7344;50.864;4.362;2023-11-19T12:55:28;16.57;;;4.80;;
14516;SDS011;7344;50.864;4.362;2023-11-19T12:57:54;20.10;;;4.77;;
14516;SDS011;7344;50.864;4.362;2023-11-19T13:00:21;21.43;;;5.03;;
14516;SDS011;7344;50.864;4.362;2023-11-19T13:02:49;20.43;;;4.73;;
14516;SDS011;7344;50.864;4.362;2023-11-19T13:05:35;19.83;;;4.63;;
14516;SDS011;7344;50.864;4.362;2023-11-19T13:08:03;18.73;;;4.60;;
14516;SDS011;7344;50.864;4.362;2023-11-19T13:10:54;17.33;;;4.83;;
14516;SDS011;7344;50.864;4.362;2023-11-19T13:13:19;18.93;;;5.10;;
14516;SDS011;7344;50.864;4.362;2023-11-19T13:15:45;23.57;;;5.33;;
14516;SDS011;7344;50.864;4.362;2023-11-19T13:18:11;21.53;;;4.70;;
14516;SDS011;7344;50.864;4.362;2023-11-19T13:20:37;17.30;;;4.83;;
14516;SDS011;7344;50.864;4.362;2023-11-19T13:23:04;17.73;;;4.73;;
14516;SDS011;7344;50.864;4.362;2023-11-19T13:25:30;21.70;;;4.33;;
14516;SDS011;7344;50.864;4.362;2023-11-19T13:28:00;18.13;;;4.83;;
14516;SDS011;7344;50.864;4.362;2023-11-19T13:30:25;23.10;;;6.27;;
14516;SDS011;7344;50.864;4.362;2023-11-19T13:32:51;18.70;;;5.27;;
14516;SDS011;7344;50.864;4.362;2023-11-19T13:35:17;29.77;;;14.30;;
14516;SDS011;7344;50.864;4.362;2023-11-19T13:37:44;18.23;;;5.23;;
14516;SDS011;7344;50.864;4.362;2023-11-19T13:40:11;18.43;;;4.93;;
14516;SDS011;7344;50.864;4.362;2023-11-19T13:42:42;17.87;;;5.50;;
14516;SDS011;7344;50.864;4.362;2023-11-19T13:45:11;21.50;;;7.17;;
14516;SDS011;7344;50.864;4.362;2023-11-19T13:47:41;25.73;;;7.33;;
14516;SDS011;7344;50.864;4.362;2023-11-19T13:50:08;16.50;;;5.97;;
14516;SDS011;7344;50.864;4.362;2023-11-19T13:52:36;22.33;;;5.57;;
14516;SDS011;7344;50.864;4.362;2023-11-19T13:55:04;21.97;;;5.27;;
14516;SDS011;7344;50.864;4.362;2023-11-19T13:57:37;22.13;;;4.90;;
14516;SDS011;7344;50.864;4.362;2023-11-19T14:00:05;21.27;;;5.40;;
14516;SDS011;7344;50.864;4.362;2023-11-19T14:02:32;22.60;;;5.73;;
14516;SDS011;7344;50.864;4.362;2023-11-19T14:04:59;21.57;;;5.33;;
14516;SDS011;7344;50.864;4.362;2023-11-19T14:07:24;19.43;;;6.93;;
14516;SDS011;7344;50.864;4.362;2023-11-19T14:09:50;19.40;;;5.40;;
14516;SDS011;7344;50.864;4.362;2023-11-19T14:12:16;25.17;;;5.50;;
14516;SDS011;7344;50.864;4.362;2023-11-19T14:14:42;22.27;;;5.53;;
14516;SDS011;7344;50.864;4.362;2023-11-19T14:17:08;22.33;;;7.33;;
14516;SDS011;7344;50.864;4.362;2023-11-19T14:19:35;19.70;;;5.33;;
14516;SDS011;7344;50.864;4.362;2023-11-19T14:22:01;22.17;;;6.47;;
14516;SDS011;7344;50.864;4.362;2023-11-19T14:24:27;22.53;;;8.17;;
14516;SDS011;7344;50.864;4.362;2023-11-19T14:26:53;20.93;;;5.77;;
14516;SDS011;7344;50.864;4.362;2023-11-19T14:29:18;20.33;;;5.93;;
14516;SDS011;7344;50.864;4.362;2023-11-19T14:31:44;25.30;;;5.00;;
14516;SDS011;7344;50.864;4.362;2023-11-19T14:34:10;25.93;;;5.60;;
14516;SDS011;7344;50.864;4.362;2023-11-19T14:36:35;22.87;;;6.27;;
14516;SDS011;7344;50.864;4.362;2023-11-19T14:39:01;24.73;;;7.10;;
14516;SDS011;7344;50.864;4.362;2023-11-19T14:41:26;22.23;;;5.40;;
14516;SDS011;7344;50.864;4.362;2023-11-19T14:43:52;22.90;;;5.60;;
14516;SDS011;7344;50.864;4.362;2023-11-19T14:46:18;22.23;;;5.13;;
14516;SDS011;7344;50.864;4.362;2023-11-19T14:48:43;22.67;;;5.63;;
14516;SDS011;7344;50.864;4.362;2023-11-19T14:51:09;22.40;;;5.13;;
14516;SDS011;7344;50.864;4.362;2023-11-19T14:53:35;22.80;;;5.73;;
14516;SDS011;7344;50.864;4.362;2023-11-19T14:56:00;24.57;;;5.73;;
14516;SDS011;7344;50.864;4.362;2023-11-19T14:58:27;26.90;;;5.50;;
14516;SDS011;7344;50.864;4.362;2023-11-19T15:00:53;19.50;;;5.37;;
14516;SDS011;7344;50.864;4.362;2023-11-19T15:03:18;18.47;;;5.37;;
14516;SDS011;7344;50.864;4.362;2023-11-19T15:05:44;20.60;;;6.77;;
14516;SDS011;7344;50.864;4.362;2023-11-19T15:08:11;23.27;;;9.73;;
14516;SDS011;7344;50.864;4.362;2023-11-19T15:10:37;25.23;;;5.20;;